Ronnie Rogers — WDD2270 — position and weather

sailwx.info

Track history (hours):
 
Tides and Currents Weather Stations Pressure Air Temp Water Temp Dewpoint Dewpoint Depression Visibility Wind Speed Wind Dir Waves Ship Positions

Ronnie Rogers

Owner: Florida Marine Transporters, Inc., Mandeville, LA. More information available from US FCC via Universal Licensing System and Coast Guard Vessel Documentation Center.

Last reported at 2015-Feb-26 08:11 UTC. Time now 2015-Feb-27 15:25 UTC.
Position N 29°21' W 094°49'.

Length 29 m; draft 3 m.

Type: Towing. MMSI: 367113160.

Date/timePositionNaut miles runAvg speedWind from/ knotsBaromVisibWave heightAir tempDewpointWater temp
2015-Feb-26 08:11N 29°21' W 094°49'5 4.7
2015-Feb-26 07:04N 29°26' W 094°50'3 6.1
2015-Feb-26 06:33N 29°29' W 094°52'6 5.8
2015-Feb-26 05:33N 29°34' W 094°55'6 5.6
2015-Feb-26 04:33N 29°39' W 094°58'6 5.5
2015-Feb-26 03:33N 29°43' W 095°01'4 4.2
2015-Feb-26 02:33N 29°45' W 095°06'5 5.4
2015-Feb-26 01:33N 29°44' W 095°12'2 0.6
2015-Feb-25 21:33N 29°44' W 095°09'3 3.2
2015-Feb-25 20:33N 29°45' W 095°06'0 0.0
2015-Feb-25 19:33N 29°46' W 095°06'0 0.3
2015-Feb-25 18:33N 29°45' W 095°06'6 5.9
2015-Feb-25 17:34N 29°44' W 095°12'0 0.0
2015-Feb-25 16:34N 29°44' W 095°12'1 0.9
2015-Feb-25 15:32N 29°43' W 095°13'1 0.9
2015-Feb-25 14:33N 29°44' W 095°12'0 0.0
2015-Feb-25 13:33N 29°44' W 095°12'0 0.0
2015-Feb-25 12:33N 29°44' W 095°12'0 0.0
2015-Feb-25 11:33N 29°44' W 095°12'0 0.0
2015-Feb-25 10:33N 29°44' W 095°12'1 0.1
2015-Feb-24 21:33N 29°45' W 095°12'5 5.4
2015-Feb-24 20:33N 29°46' W 095°05'5 5.0
2015-Feb-24 19:33N 29°42' W 095°01'6 6.0
2015-Feb-24 18:33N 29°37' W 094°57'7 7.0
2015-Feb-24 17:33N 29°31' W 094°53'9 8.4
2015-Feb-24 16:31N 29°24' W 094°49'  
2015-Feb-22 12:23N 29°21' W 094°49'0 0.0
2015-Feb-22 11:11N 29°21' W 094°49'0 0.0
2015-Feb-22 10:08N 29°21' W 094°49'0 0.0
2015-Feb-22 08:27N 29°21' W 094°49'  
Track history (hours):
 
Tides and Currents Weather Stations Pressure Air Temp Water Temp Dewpoint Dewpoint Depression Visibility Wind Speed Wind Dir Waves Ship Positions

Ronnie Rogers

Owner: Florida Marine Transporters, Inc., Mandeville, LA. More information available from US FCC via Universal Licensing System and Coast Guard Vessel Documentation Center.

Last reported at 2015-Feb-26 08:11 UTC. Time now 2015-Feb-27 15:25 UTC.
Position N 29°21' W 094°49'.

Length 29 m; draft 3 m.

Type: Towing. MMSI: 367113160.

Date/timePositionNaut miles runAvg speedWind from/ knotsBaromVisibWave heightAir tempDewpointWater temp
2015-Feb-26 08:11N 29°21' W 094°49'5 4.7
2015-Feb-26 07:04N 29°26' W 094°50'3 6.1
2015-Feb-26 06:33N 29°29' W 094°52'6 5.8
2015-Feb-26 05:33N 29°34' W 094°55'6 5.6
2015-Feb-26 04:33N 29°39' W 094°58'6 5.5
2015-Feb-26 03:33N 29°43' W 095°01'4 4.2
2015-Feb-26 02:33N 29°45' W 095°06'5 5.4
2015-Feb-26 01:33N 29°44' W 095°12'2 0.6
2015-Feb-25 21:33N 29°44' W 095°09'3 3.2
2015-Feb-25 20:33N 29°45' W 095°06'0 0.0
2015-Feb-25 19:33N 29°46' W 095°06'0 0.3
2015-Feb-25 18:33N 29°45' W 095°06'6 5.9
2015-Feb-25 17:34N 29°44' W 095°12'0 0.0
2015-Feb-25 16:34N 29°44' W 095°12'1 0.9
2015-Feb-25 15:32N 29°43' W 095°13'1 0.9
2015-Feb-25 14:33N 29°44' W 095°12'0 0.0
2015-Feb-25 13:33N 29°44' W 095°12'0 0.0
2015-Feb-25 12:33N 29°44' W 095°12'0 0.0
2015-Feb-25 11:33N 29°44' W 095°12'0 0.0
2015-Feb-25 10:33N 29°44' W 095°12'1 0.1
2015-Feb-24 21:33N 29°45' W 095°12'5 5.4
2015-Feb-24 20:33N 29°46' W 095°05'5 5.0
2015-Feb-24 19:33N 29°42' W 095°01'6 6.0
2015-Feb-24 18:33N 29°37' W 094°57'7 7.0
2015-Feb-24 17:33N 29°31' W 094°53'9 8.4
2015-Feb-24 16:31N 29°24' W 094°49'  
2015-Feb-22 12:23N 29°21' W 094°49'0 0.0
2015-Feb-22 11:11N 29°21' W 094°49'0 0.0
2015-Feb-22 10:08N 29°21' W 094°49'0 0.0
2015-Feb-22 08:27N 29°21' W 094°49'  

Dump ship's entire track history